• Join FlightAware (Why Join?)
  • Login
  • US Flag 
04:33AM EDT


 

Airport Tracker/Info


-or-


 

Live Flight TrackerFlight Track Log ✈ CPA91 ✈ 25-Apr-2012 ✈ KDFW - KLAX

Flight Track Log - Related Links

Times and Time Zones

All times are in EDT time to prevent confusion due to time zone crossing. See the CPA91 flight status page for this flight to view local times or setup timezone preferences in your user account.

Time Position Orientation Groundspeed Altitude Reporting Facility
EDT Latitude Longitude Course Direction KTS MPH feet Rate Location/Type
02:49AM 32.8656 -97.0542 181° South 139 160 1,600  Level FAA TRACON SMA TRACON (SMA)
02:50AM 32.8406 -97.0547 184° South 147 169 2,100 780 Climbing FAA TRACON SMA TRACON (SMA)
02:50AM 32.8058 -97.0575 236° Southwest 188 216 2,700 1,200 Climbing FAA TRACON SMA TRACON (SMA)
02:51AM 32.7839 -97.0964 279° West 235 270 3,700 1,920 Climbing FAA TRACON SMA TRACON (SMA)
02:52AM 32.7911 -97.1481 279° West 255 293 5,300 2,280 Climbing FAA TRACON SMA TRACON (SMA)
02:52AM 32.7989 -97.2075 279° West 267 307 6,800 2,400 Climbing FAA TRACON SMA TRACON (SMA)
02:53AM 32.8075 -97.2714 278° West 283 326 8,500 2,340 Climbing FAA TRACON SMA TRACON (SMA)
02:54AM 32.8142 -97.3286 279° West 286 329 10,000 1,860 Climbing FAA TRACON SMA TRACON (SMA)
02:54AM 32.8231 -97.3972 279° West 308 354 11,000 1,260 Climbing FAA TRACON SMA TRACON (SMA)
02:55AM 32.8328 -97.4742 279° West 346 398 11,700 1,140 Climbing FAA TRACON SMA TRACON (SMA)
02:56AM 32.8422 -97.5489 281° West 374 430 12,600 1,800 Climbing FAA TRACON SMA TRACON (SMA)
02:56AM 32.8561 -97.6364 280° West 389 448 14,100 2,220 Climbing FAA TRACON SMA TRACON (SMA)
02:57AM 32.8689 -97.7250 280° West 394 453 15,600 1,980 Climbing FAA TRACON SMA TRACON (SMA)
02:58AM 32.8814 -97.8058 279° West 404 465 16,800 1,980 Climbing FAA TRACON SMA TRACON (SMA)
02:58AM 32.8944 -97.8992 280° West 415 478 18,300 2,100 Climbing FAA TRACON SMA TRACON (SMA)
02:59AM 32.9075 -97.9833 279° West 419 482 19,600 1,920 Climbing FAA TRACON SMA TRACON (SMA)
03:00AM 32.9200 -98.0792 280° West 425 489 20,900 1,800 Climbing FAA TRACON SMA TRACON (SMA)
03:00AM 32.9344 -98.1761 279° West 431 496 22,000 1,680 Climbing FAA TRACON SMA TRACON (SMA)
03:01AM 32.9453 -98.2600 278° West 428 493 23,100 1,500 Climbing Fort Worth Center
03:02AM 32.9631 -98.4064 280° West 444 511 24,500 1,380 Climbing Fort Worth Center
03:03AM 32.9828 -98.5353 279° West 443 510 25,900 1,320 Climbing Fort Worth Center
03:04AM 33.0022 -98.6817 280° West 449 517 27,200 1,560 Climbing Fort Worth Center
03:05AM 33.0236 -98.8331 280° West 455 524 29,100 1,980 Climbing Fort Worth Center
03:06AM 33.0447 -98.9797 279° West 455 524 31,200 1,440 Climbing Fort Worth Center
03:07AM 33.0639 -99.1264 280° West 455 524 32,000 360 Climbing Fort Worth Center
03:08AM 33.0847 -99.2731 279° West 455 524 32,000  Level Fort Worth Center
03:09AM 33.1033 -99.4197 279° West 455 524 32,000  Level Fort Worth Center
03:10AM 33.1217 -99.5639 280° West 450 518 32,000  Level Fort Worth Center
03:11AM 33.1422 -99.7083 278° West 445 512 32,000  Level Fort Worth Center
03:12AM 33.1603 -99.8553 278° West 445 512 32,000  Level Fort Worth Center
03:13AM 33.1781 -100.0044 278° West 445 512 32,000  Level Fort Worth Center
03:14AM 33.1958 -100.1517 278° West 445 512 32,000  Level Fort Worth Center
03:15AM 33.2133 -100.2961 277° West 445 512 32,000  Level Fort Worth Center
03:16AM 33.2289 -100.4406 279° West 445 512 32,000  Level Fort Worth Center
03:17AM 33.2481 -100.5903 278° West 445 512 32,000  Level Fort Worth Center
03:18AM 33.2653 -100.7325 278° West 445 512 32,000  Level Fort Worth Center
03:19AM 33.2822 -100.8797 277° West 445 512 32,000  Level Fort Worth Center
03:20AM 33.2969 -101.0244 279° West 440 506 32,000  Level Fort Worth Center
03:21AM 33.3172 -101.1844 279° West 445 512 32,000  Level Fort Worth Center
03:22AM 33.3342 -101.3144 277° West 445 512 32,000  Level Fort Worth Center
03:23AM 33.3500 -101.4742 276° West 445 512 32,000  Level Fort Worth Center
03:24AM 33.3622 -101.6042 278° West 445 512 32,000  Level Fort Worth Center
03:25AM 33.3797 -101.7642 278° West 451 519 32,000  Level Fort Worth Center
03:26AM 33.3958 -101.9017 277° West 451 519 32,000  Level Fort Worth Center
03:27AM 33.4128 -102.0644 279° West 451 519 32,000  Level Fort Worth Center
03:28AM 33.4306 -102.2047 277° West 468 539 32,000  Level Fort Worth Center
03:29AM 33.4472 -102.3672 277° West 468 539 32,000  Level Fort Worth Center
03:30AM 33.4639 -102.5200 277° West 468 539 32,000  Level Fort Worth Center
03:32AM 33.4981 -102.8369 277° West 487 560 32,000  Level Albuquerque Center
03:33AM 33.5117 -102.9781 277° West 472 543 32,000  Level Albuquerque Center
03:34AM 33.5275 -103.1267 275° West 457 526 32,000  Level Albuquerque Center
03:35AM 33.5386 -103.2708 277° West 457 526 32,000  Level Albuquerque Center
03:36AM 33.5542 -103.4219 277° West 452 520 32,000  Level Albuquerque Center
03:37AM 33.5692 -103.5658 275° West 452 520 32,000  Level Albuquerque Center
03:38AM 33.5800 -103.7122 277° West 447 514 32,000  Level Albuquerque Center
03:39AM 33.5953 -103.8711 277° West 440 506 32,000  Level Albuquerque Center
03:40AM 33.6100 -104.0178 276° West 440 506 32,000  Level Albuquerque Center
03:41AM 33.6222 -104.1619 275° West 440 506 32,000  Level Albuquerque Center
03:42AM 33.6322 -104.3111 277° West 440 506 32,000  Level Albuquerque Center
03:43AM 33.6464 -104.4578 277° West 440 506 32,000  Level Albuquerque Center
03:44AM 33.6603 -104.6019 274° West 445 512 32,000  Level Albuquerque Center
03:45AM 33.6697 -104.7514 276° West 445 512 32,000  Level Albuquerque Center
03:46AM 33.6811 -104.8858 276° West 445 512 32,000  Level Albuquerque Center
03:47AM 33.6947 -105.0450 277° West 445 512 32,000  Level Albuquerque Center
03:48AM 33.7075 -105.1769 274° West 445 512 32,000  Level Albuquerque Center
03:49AM 33.7167 -105.3414 277° West 445 512 32,000  Level Albuquerque Center
03:50AM 33.7292 -105.4711 275° West 445 512 32,000  Level Albuquerque Center
03:51AM 33.7397 -105.6156 278° West 445 512 32,000  Level Albuquerque Center
03:52AM 33.7564 -105.7678 274° West 445 512 32,000  Level Albuquerque Center
03:53AM 33.7647 -105.9150 276° West 445 512 32,000  Level Albuquerque Center
03:54AM 33.7767 -106.0647 276° West 445 512 32,000  Level Albuquerque Center
03:55AM 33.7886 -106.2144 275° West 445 512 32,000  Level Albuquerque Center
03:56AM 33.7983 -106.3592 274° West 440 506 32,000  Level Albuquerque Center
03:57AM 33.8078 -106.5064 275° West 446 513 32,000  Level Albuquerque Center
03:58AM 33.8192 -106.6514 274° West 441 507 32,000  Level Albuquerque Center
03:59AM 33.8283 -106.7936 274° West 441 507 32,000  Level Albuquerque Center
04:00AM 33.8372 -106.9411 275° West 441 507 32,000  Level Albuquerque Center
04:01AM 33.8481 -107.1061 275° West 448 516 32,000  Level Albuquerque Center
04:02AM 33.8589 -107.2511 274° West 448 516 32,000  Level Albuquerque Center
04:03AM 33.8672 -107.3961 274° West 443 510 32,000  Level Albuquerque Center
04:04AM 33.8753 -107.5461 274° West 443 510 32,000  Level Albuquerque Center
04:05AM 33.8833 -107.6939 275° West 443 510 32,000  Level Albuquerque Center
04:06AM 33.8933 -107.8414 274° West 443 510 32,000  Level Albuquerque Center
04:07AM 33.9011 -107.9917 274° West 443 510 32,000  Level Albuquerque Center
04:08AM 33.9106 -108.1394 277° West 443 510 32,000  Level Albuquerque Center
04:09AM 33.9242 -108.2822 273° West 437 503 32,000  Level Albuquerque Center
04:10AM 33.9314 -108.4272 274° West 442 509 32,000  Level Albuquerque Center
04:11AM 33.9403 -108.5778 273° West 442 509 32,000  Level Albuquerque Center
04:12AM 33.9469 -108.7231 274° West 442 509 32,000  Level Albuquerque Center
04:13AM 33.9558 -108.8708 273° West 447 514 32,000  Level Albuquerque Center
04:14AM 33.9622 -109.0011 273° West 441 507 32,000  Level Albuquerque Center
04:15AM 33.9686 -109.1439 274° West 441 507 32,000  Level Albuquerque Center
04:16AM 33.9769 -109.2869 273° West 441 507 32,000  Level Albuquerque Center
04:17AM 33.9828 -109.4322 273° West 436 502 32,000  Level Albuquerque Center
04:18AM 33.9886 -109.5753 274° West 436 502 32,000  Level Albuquerque Center
04:19AM 33.9961 -109.7206 273° West 436 502 32,000  Level Albuquerque Center
04:20AM 34.0017 -109.8661 273° West 442 509 32,000  Level Albuquerque Center
04:21AM 34.0069 -110.0092 273° West 442 509 32,000  Level Albuquerque Center
04:22AM 34.0139 -110.1547 272° West 442 509 32,000  Level Albuquerque Center
04:23AM 34.0189 -110.3000 272° West 442 509 32,000  Level Albuquerque Center
04:24AM 34.0231 -110.4631 273° West 447 514 32,000  Level Albuquerque Center
04:25AM 34.0297 -110.6036 274° West 442 509 32,000  Level Albuquerque Center
04:26AM 34.0367 -110.7367 273° West 437 503 32,000  Level Albuquerque Center
04:27AM 34.0428 -110.8822 272° West 442 509 32,000  Level Albuquerque Center
04:28AM 34.0467 -111.0303 271° West 442 509 32,000  Level Albuquerque Center
04:29AM 34.0483 -111.1758 273° West 442 509 32,000  Level Albuquerque Center
04:30AM 34.0542 -111.3189 273° West 442 509 32,000  Level Albuquerque Center
04:31AM 34.0597 -111.4622 271° West 437 503 32,000  Level Albuquerque Center
04:32AM 34.0625 -111.6253 273° West 446 513 32,000  Level Albuquerque Center
04:33AM 34.0681 -111.7583 272° West 441 507 32,000  Level Albuquerque Center
04:34AM 34.0725 -111.9167 271° West 441 507 32,000  Level Albuquerque Center
04:35AM 34.0753 -112.0647 272° West 441 507 32,000  Level Albuquerque Center
04:36AM 34.0783 -112.1978 273° West 441 507 32,000  Level Albuquerque Center
04:37AM 34.0842 -112.3611 272° West 446 513 32,000  Level Albuquerque Center
04:38AM 34.0869 -112.4914 271° West 441 507 32,000  Level Albuquerque Center
04:39AM 34.0881 -112.6547 271° West 441 507 32,000  Level Albuquerque Center
04:40AM 34.0897 -112.8028 272° West 441 507 32,000  Level Albuquerque Center
04:41AM 34.0942 -112.9333 270° West 441 507 32,000  Level Albuquerque Center
04:42AM 34.0936 -113.0789 271° West 441 507 32,000  Level Albuquerque Center
04:43AM 34.0967 -113.2294 271° West 441 507 32,000  Level Albuquerque Center
04:44AM 34.0997 -113.3778 271° West 446 513 32,000  Level Albuquerque Center
04:46AM 34.1056 -113.7078 267° West 443 510 32,000  Level Los Angeles Center
04:47AM 34.1000 -113.8533 267° West 443 510 32,000  Level Los Angeles Center
04:48AM 34.0944 -114.0017 266° West 443 510 32,000  Level Los Angeles Center
04:49AM 34.0864 -114.1497 269° West 443 510 32,000  Level Los Angeles Center
04:50AM 34.0844 -114.2978 268° West 443 510 32,000  Level Los Angeles Center
04:51AM 34.0806 -114.4483 267° West 443 510 32,000  Level Los Angeles Center
04:52AM 34.0739 -114.5914 268° West 443 510 32,000  Level Los Angeles Center
04:53AM 34.0694 -114.7419 268° West 443 510 32,000  Level Los Angeles Center
04:54AM 34.0647 -114.8900 268° West 443 510 32,000  Level Los Angeles Center
04:55AM 34.0600 -115.0381 266° West 443 510 32,000  Level Los Angeles Center
04:56AM 34.0508 -115.1836 268° West 443 510 32,000  Level Los Angeles Center
04:57AM 34.0456 -115.3314 267° West 443 510 32,000  Level Los Angeles Center
04:58AM 34.0381 -115.4819 267° West 443 510 32,000  Level Los Angeles Center
04:59AM 34.0325 -115.6300 267° West 443 510 32,000  Level Los Angeles Center
05:00AM 34.0267 -115.7778 267° West 443 510 32,000  Level Los Angeles Center
05:01AM 34.0208 -115.9283 266° West 443 510 32,000  Level Los Angeles Center
05:02AM 34.0125 -116.0786 267° West 443 510 32,000 -120 Level Los Angeles Center
05:03AM 34.0061 -116.2239 265° West 443 510 31,800 -1,200 Descending Los Angeles Center
05:04AM 33.9956 -116.3692 267° West 443 510 29,700 -2,280 Descending Los Angeles Center
05:05AM 33.9889 -116.5119 268° West 443 510 27,300 -2,400 Descending Los Angeles Center
05:06AM 33.9842 -116.6522 266° West 438 504 24,900 -2,400 Descending Los Angeles Center
05:07AM 33.9753 -116.8050 265° West 438 504 22,500 -2,400 Descending Los Angeles Center
05:08AM 33.9658 -116.9428 266° West 420 483 20,100 -2,400 Descending Los Angeles Center
05:09AM 33.9586 -117.0728 266° West 409 471 17,800 -1,560 Descending Los Angeles Center
05:10AM 33.9514 -117.1981 262° West 398 458 17,000 -420 Descending Los Angeles Center
05:11AM 33.9378 -117.3206 265° West 380 437 17,000  Level Los Angeles Center
05:12AM 33.9281 -117.4431 269° West 375 432 17,000 -120 Level Los Angeles Center
05:13AM 33.9267 -117.5658 279° West 370 426 16,800 -600 Descending Los Angeles Center
05:14AM 33.9400 -117.6736 279° West 365 420 15,900 -1,080 Descending Los Angeles Center
05:15AM 33.9553 -117.7942 275° West 365 420 14,700 -1,200 Descending Los Angeles Center
05:16AM 33.9639 -117.9194 276° West 370 426 13,500 -1,200 Descending Los Angeles Center
05:17AM 33.9744 -118.0350 276° West 365 420 12,300 -1,200 Descending Los Angeles Center
05:18AM 33.9833 -118.1453 276° West 351 404 11,200 -1,080 Descending Los Angeles Center
05:19AM 33.9919 -118.2433 275° West 323 372 10,200 -900 Descending Los Angeles Center
05:20AM 33.9986 -118.3336 277° West 296 341 9,400 -1,080 Descending Los Angeles Center
05:21AM 34.0075 -118.4217 272° West 278 320 8,100 -900 Descending Los Angeles Center
05:22AM 34.0103 -118.5019 265° West 261 300 7,700 -660 Descending Los Angeles Center
05:23AM 34.0047 -118.5719 264° West 238 274 6,800 -1,140 Descending Los Angeles Center
05:24AM 33.9992 -118.6344 217° Southwest 211 243 5,500 -1,380 Descending Los Angeles Center
05:25AM 33.9672 -118.6633 143° Southeast 144 166 4,100 -1,200 Descending Los Angeles Center
05:26AM 33.9303 -118.6297 101° East 111 128 3,200 -840 Descending Los Angeles Center
05:27AM 33.9211 -118.5719 83° East 123 142 2,500 -780 Descending Los Angeles Center
05:30AM 33.9333 -118.4500 83° East 145 167 600 -780 Descending Southern California TRACON